sensor_id;sensor_type;location;lat;lon;timestamp;P1;durP1;ratioP1;P2;durP2;ratioP2
1412;SDS011;701;52.526;13.408;2023-12-07T00:01:47;19.17;;;8.85;;
1412;SDS011;701;52.526;13.408;2023-12-07T00:04:13;19.23;;;9.50;;
1412;SDS011;701;52.526;13.408;2023-12-07T00:06:38;18.27;;;8.30;;
1412;SDS011;701;52.526;13.408;2023-12-07T00:09:04;20.97;;;10.03;;
1412;SDS011;701;52.526;13.408;2023-12-07T00:11:30;19.67;;;9.27;;
1412;SDS011;701;52.526;13.408;2023-12-07T00:13:55;19.50;;;8.90;;
1412;SDS011;701;52.526;13.408;2023-12-07T00:16:21;19.23;;;8.60;;
1412;SDS011;701;52.526;13.408;2023-12-07T00:18:47;19.15;;;8.73;;
1412;SDS011;701;52.526;13.408;2023-12-07T00:21:13;17.97;;;8.33;;
1412;SDS011;701;52.526;13.408;2023-12-07T00:23:38;18.10;;;8.68;;
1412;SDS011;701;52.526;13.408;2023-12-07T00:26:04;18.13;;;8.67;;
1412;SDS011;701;52.526;13.408;2023-12-07T00:28:30;17.95;;;9.02;;
1412;SDS011;701;52.526;13.408;2023-12-07T00:30:56;19.13;;;9.38;;
1412;SDS011;701;52.526;13.408;2023-12-07T00:33:22;21.37;;;9.47;;
1412;SDS011;701;52.526;13.408;2023-12-07T00:35:48;18.08;;;8.27;;
1412;SDS011;701;52.526;13.408;2023-12-07T00:38:13;18.15;;;9.55;;
1412;SDS011;701;52.526;13.408;2023-12-07T00:40:39;20.80;;;9.83;;
1412;SDS011;701;52.526;13.408;2023-12-07T00:43:05;19.20;;;9.00;;
1412;SDS011;701;52.526;13.408;2023-12-07T00:45:32;17.02;;;8.68;;
1412;SDS011;701;52.526;13.408;2023-12-07T00:47:58;18.67;;;8.63;;
1412;SDS011;701;52.526;13.408;2023-12-07T00:50:24;18.20;;;9.18;;
1412;SDS011;701;52.526;13.408;2023-12-07T00:52:49;19.48;;;8.68;;
1412;SDS011;701;52.526;13.408;2023-12-07T00:55:15;20.58;;;8.82;;
1412;SDS011;701;52.526;13.408;2023-12-07T00:57:41;19.40;;;9.57;;
1412;SDS011;701;52.526;13.408;2023-12-07T01:00:07;21.08;;;9.15;;
1412;SDS011;701;52.526;13.408;2023-12-07T01:02:33;20.38;;;9.57;;
1412;SDS011;701;52.526;13.408;2023-12-07T01:04:59;17.73;;;9.07;;
1412;SDS011;701;52.526;13.408;2023-12-07T01:07:25;17.67;;;9.00;;
1412;SDS011;701;52.526;13.408;2023-12-07T01:09:51;19.85;;;9.25;;
1412;SDS011;701;52.526;13.408;2023-12-07T01:12:17;20.33;;;10.00;;
1412;SDS011;701;52.526;13.408;2023-12-07T01:14:43;18.48;;;8.32;;
1412;SDS011;701;52.526;13.408;2023-12-07T01:17:09;21.60;;;9.43;;
1412;SDS011;701;52.526;13.408;2023-12-07T01:19:35;17.40;;;8.67;;
1412;SDS011;701;52.526;13.408;2023-12-07T01:22:01;19.95;;;9.23;;
1412;SDS011;701;52.526;13.408;2023-12-07T01:24:26;20.17;;;9.73;;
1412;SDS011;701;52.526;13.408;2023-12-07T01:26:52;18.60;;;9.25;;
1412;SDS011;701;52.526;13.408;2023-12-07T01:29:18;17.30;;;8.33;;
1412;SDS011;701;52.526;13.408;2023-12-07T01:31:44;20.02;;;9.35;;
1412;SDS011;701;52.526;13.408;2023-12-07T01:34:10;21.65;;;9.23;;
1412;SDS011;701;52.526;13.408;2023-12-07T01:36:35;18.30;;;9.00;;
1412;SDS011;701;52.526;13.408;2023-12-07T01:39:01;18.10;;;8.73;;
1412;SDS011;701;52.526;13.408;2023-12-07T01:41:27;16.97;;;8.43;;
1412;SDS011;701;52.526;13.408;2023-12-07T01:43:53;18.67;;;8.90;;
1412;SDS011;701;52.526;13.408;2023-12-07T01:46:19;17.77;;;9.48;;
1412;SDS011;701;52.526;13.408;2023-12-07T01:48:45;17.95;;;9.13;;
1412;SDS011;701;52.526;13.408;2023-12-07T01:51:14;18.70;;;9.25;;
1412;SDS011;701;52.526;13.408;2023-12-07T01:53:41;16.50;;;8.80;;
1412;SDS011;701;52.526;13.408;2023-12-07T01:56:08;19.33;;;8.90;;
1412;SDS011;701;52.526;13.408;2023-12-07T01:58:34;17.75;;;9.23;;
1412;SDS011;701;52.526;13.408;2023-12-07T02:01:00;20.27;;;9.50;;
1412;SDS011;701;52.526;13.408;2023-12-07T02:03:28;18.45;;;8.63;;
1412;SDS011;701;52.526;13.408;2023-12-07T02:05:55;19.08;;;9.23;;
1412;SDS011;701;52.526;13.408;2023-12-07T02:08:22;17.98;;;9.25;;
1412;SDS011;701;52.526;13.408;2023-12-07T02:10:48;17.17;;;8.70;;
1412;SDS011;701;52.526;13.408;2023-12-07T02:13:14;19.25;;;9.20;;
1412;SDS011;701;52.526;13.408;2023-12-07T02:15:40;20.45;;;8.73;;
1412;SDS011;701;52.526;13.408;2023-12-07T02:20:39;19.25;;;8.90;;
1412;SDS011;701;52.526;13.408;2023-12-07T02:23:14;17.83;;;8.77;;
1412;SDS011;701;52.526;13.408;2023-12-07T02:25:52;17.90;;;8.40;;
1412;SDS011;701;52.526;13.408;2023-12-07T02:28:19;17.90;;;8.57;;
1412;SDS011;701;52.526;13.408;2023-12-07T02:30:45;17.27;;;8.68;;
1412;SDS011;701;52.526;13.408;2023-12-07T02:33:11;19.48;;;9.20;;
1412;SDS011;701;52.526;13.408;2023-12-07T02:35:37;17.25;;;8.50;;
1412;SDS011;701;52.526;13.408;2023-12-07T02:38:05;19.07;;;9.03;;
1412;SDS011;701;52.526;13.408;2023-12-07T02:40:32;16.35;;;8.60;;
1412;SDS011;701;52.526;13.408;2023-12-07T02:42:59;17.25;;;8.65;;
1412;SDS011;701;52.526;13.408;2023-12-07T02:45:25;18.65;;;8.63;;
1412;SDS011;701;52.526;13.408;2023-12-07T02:47:52;21.27;;;9.18;;
1412;SDS011;701;52.526;13.408;2023-12-07T02:50:18;19.87;;;8.60;;
1412;SDS011;701;52.526;13.408;2023-12-07T02:52:43;18.38;;;8.73;;
1412;SDS011;701;52.526;13.408;2023-12-07T02:55:09;21.37;;;8.97;;
1412;SDS011;701;52.526;13.408;2023-12-07T02:57:35;18.38;;;8.38;;
1412;SDS011;701;52.526;13.408;2023-12-07T03:00:04;16.73;;;8.00;;
1412;SDS011;701;52.526;13.408;2023-12-07T03:02:35;18.75;;;9.48;;
1412;SDS011;701;52.526;13.408;2023-12-07T03:05:01;19.77;;;9.57;;
1412;SDS011;701;52.526;13.408;2023-12-07T03:07:28;19.52;;;9.32;;
1412;SDS011;701;52.526;13.408;2023-12-07T03:09:53;17.42;;;8.93;;
1412;SDS011;701;52.526;13.408;2023-12-07T03:12:19;19.03;;;8.83;;
1412;SDS011;701;52.526;13.408;2023-12-07T03:14:45;19.40;;;9.20;;
1412;SDS011;701;52.526;13.408;2023-12-07T03:17:10;16.40;;;8.20;;
1412;SDS011;701;52.526;13.408;2023-12-07T03:19:39;19.17;;;9.10;;
1412;SDS011;701;52.526;13.408;2023-12-07T03:22:05;19.52;;;8.95;;
1412;SDS011;701;52.526;13.408;2023-12-07T03:24:36;18.75;;;8.63;;
1412;SDS011;701;52.526;13.408;2023-12-07T03:27:02;18.95;;;8.82;;
1412;SDS011;701;52.526;13.408;2023-12-07T03:29:29;17.52;;;9.13;;
1412;SDS011;701;52.526;13.408;2023-12-07T03:31:55;20.50;;;9.03;;
1412;SDS011;701;52.526;13.408;2023-12-07T03:34:21;18.63;;;8.88;;
1412;SDS011;701;52.526;13.408;2023-12-07T03:36:46;17.63;;;8.50;;
1412;SDS011;701;52.526;13.408;2023-12-07T03:39:13;19.77;;;9.63;;
1412;SDS011;701;52.526;13.408;2023-12-07T03:41:40;20.17;;;8.90;;
1412;SDS011;701;52.526;13.408;2023-12-07T03:44:06;17.83;;;8.80;;
1412;SDS011;701;52.526;13.408;2023-12-07T03:46:32;18.10;;;8.63;;
1412;SDS011;701;52.526;13.408;2023-12-07T03:48:58;19.60;;;9.10;;
1412;SDS011;701;52.526;13.408;2023-12-07T03:51:26;19.02;;;9.77;;
1412;SDS011;701;52.526;13.408;2023-12-07T03:53:51;18.88;;;9.25;;
1412;SDS011;701;52.526;13.408;2023-12-07T03:56:27;19.90;;;9.33;;
1412;SDS011;701;52.526;13.408;2023-12-07T03:58:54;20.33;;;9.15;;
1412;SDS011;701;52.526;13.408;2023-12-07T04:01:23;19.00;;;8.98;;
1412;SDS011;701;52.526;13.408;2023-12-07T04:03:50;18.60;;;9.70;;
1412;SDS011;701;52.526;13.408;2023-12-07T04:06:16;22.05;;;9.75;;
1412;SDS011;701;52.526;13.408;2023-12-07T04:08:42;19.85;;;9.80;;
1412;SDS011;701;52.526;13.408;2023-12-07T04:11:08;19.05;;;9.38;;
1412;SDS011;701;52.526;13.408;2023-12-07T04:13:33;21.53;;;9.77;;
1412;SDS011;701;52.526;13.408;2023-12-07T04:15:59;20.73;;;9.73;;
1412;SDS011;701;52.526;13.408;2023-12-07T04:18:25;21.87;;;9.60;;
1412;SDS011;701;52.526;13.408;2023-12-07T04:20:51;24.35;;;10.85;;
1412;SDS011;701;52.526;13.408;2023-12-07T04:23:16;23.07;;;10.00;;
1412;SDS011;701;52.526;13.408;2023-12-07T04:25:42;20.50;;;9.50;;
1412;SDS011;701;52.526;13.408;2023-12-07T04:28:08;23.23;;;9.07;;
1412;SDS011;701;52.526;13.408;2023-12-07T04:30:33;25.13;;;10.97;;
1412;SDS011;701;52.526;13.408;2023-12-07T04:32:59;22.17;;;9.55;;
1412;SDS011;701;52.526;13.408;2023-12-07T04:35:25;24.53;;;10.27;;
1412;SDS011;701;52.526;13.408;2023-12-07T04:37:50;22.38;;;9.88;;
1412;SDS011;701;52.526;13.408;2023-12-07T04:40:16;19.53;;;9.80;;
1412;SDS011;701;52.526;13.408;2023-12-07T04:42:42;21.52;;;9.77;;
1412;SDS011;701;52.526;13.408;2023-12-07T04:45:08;23.97;;;10.03;;
1412;SDS011;701;52.526;13.408;2023-12-07T04:47:34;23.55;;;10.27;;
1412;SDS011;701;52.526;13.408;2023-12-07T04:49:59;24.05;;;10.10;;
1412;SDS011;701;52.526;13.408;2023-12-07T04:52:25;25.10;;;8.83;;
1412;SDS011;701;52.526;13.408;2023-12-07T04:54:51;21.77;;;9.93;;
1412;SDS011;701;52.526;13.408;2023-12-07T04:57:17;22.70;;;9.53;;
1412;SDS011;701;52.526;13.408;2023-12-07T04:59:42;24.15;;;10.70;;
1412;SDS011;701;52.526;13.408;2023-12-07T05:02:15;22.97;;;9.90;;
1412;SDS011;701;52.526;13.408;2023-12-07T05:04:42;26.15;;;11.60;;
1412;SDS011;701;52.526;13.408;2023-12-07T05:07:08;23.55;;;10.07;;
1412;SDS011;701;52.526;13.408;2023-12-07T05:09:34;24.23;;;9.68;;
1412;SDS011;701;52.526;13.408;2023-12-07T05:12:00;24.77;;;10.53;;
1412;SDS011;701;52.526;13.408;2023-12-07T05:14:25;23.83;;;10.40;;
1412;SDS011;701;52.526;13.408;2023-12-07T05:16:51;23.23;;;9.50;;
1412;SDS011;701;52.526;13.408;2023-12-07T05:19:21;37.63;;;15.80;;
1412;SDS011;701;52.526;13.408;2023-12-07T05:21:48;24.73;;;11.38;;
1412;SDS011;701;52.526;13.408;2023-12-07T05:24:13;24.35;;;10.35;;
1412;SDS011;701;52.526;13.408;2023-12-07T05:26:43;25.77;;;10.50;;
1412;SDS011;701;52.526;13.408;2023-12-07T05:29:11;23.15;;;10.00;;
1412;SDS011;701;52.526;13.408;2023-12-07T05:31:38;22.67;;;9.52;;
1412;SDS011;701;52.526;13.408;2023-12-07T05:34:04;22.95;;;10.32;;
1412;SDS011;701;52.526;13.408;2023-12-07T05:36:30;27.63;;;10.33;;
1412;SDS011;701;52.526;13.408;2023-12-07T05:38:57;25.15;;;11.00;;
1412;SDS011;701;52.526;13.408;2023-12-07T05:41:22;26.70;;;11.45;;
1412;SDS011;701;52.526;13.408;2023-12-07T05:43:48;24.23;;;10.63;;
1412;SDS011;701;52.526;13.408;2023-12-07T05:46:14;22.80;;;10.23;;
1412;SDS011;701;52.526;13.408;2023-12-07T05:48:40;29.60;;;11.48;;
1412;SDS011;701;52.526;13.408;2023-12-07T05:51:11;24.42;;;10.30;;
1412;SDS011;701;52.526;13.408;2023-12-07T05:53:41;24.73;;;10.80;;
1412;SDS011;701;52.526;13.408;2023-12-07T05:56:07;26.07;;;10.70;;
1412;SDS011;701;52.526;13.408;2023-12-07T05:58:33;30.25;;;13.32;;
1412;SDS011;701;52.526;13.408;2023-12-07T06:01:00;25.13;;;10.00;;
1412;SDS011;701;52.526;13.408;2023-12-07T06:03:27;26.07;;;11.20;;
1412;SDS011;701;52.526;13.408;2023-12-07T06:05:52;28.58;;;9.98;;
1412;SDS011;701;52.526;13.408;2023-12-07T06:08:18;24.38;;;10.57;;
1412;SDS011;701;52.526;13.408;2023-12-07T06:10:44;28.33;;;10.90;;
1412;SDS011;701;52.526;13.408;2023-12-07T06:13:10;22.23;;;10.13;;
1412;SDS011;701;52.526;13.408;2023-12-07T06:15:36;21.77;;;9.77;;
1412;SDS011;701;52.526;13.408;2023-12-07T06:18:01;27.95;;;12.43;;
1412;SDS011;701;52.526;13.408;2023-12-07T06:20:28;26.10;;;11.48;;
1412;SDS011;701;52.526;13.408;2023-12-07T06:22:54;26.27;;;11.13;;
1412;SDS011;701;52.526;13.408;2023-12-07T06:25:19;22.55;;;9.98;;
1412;SDS011;701;52.526;13.408;2023-12-07T06:27:45;25.27;;;9.93;;
1412;SDS011;701;52.526;13.408;2023-12-07T06:30:11;20.57;;;9.00;;
1412;SDS011;701;52.526;13.408;2023-12-07T06:32:37;22.52;;;9.75;;
1412;SDS011;701;52.526;13.408;2023-12-07T06:35:03;25.57;;;9.83;;
1412;SDS011;701;52.526;13.408;2023-12-07T06:37:30;23.15;;;10.25;;
1412;SDS011;701;52.526;13.408;2023-12-07T06:39:55;22.10;;;9.55;;
1412;SDS011;701;52.526;13.408;2023-12-07T06:42:21;24.55;;;10.25;;
1412;SDS011;701;52.526;13.408;2023-12-07T06:44:47;23.30;;;10.55;;
1412;SDS011;701;52.526;13.408;2023-12-07T06:47:16;23.75;;;9.68;;
1412;SDS011;701;52.526;13.408;2023-12-07T06:49:43;23.50;;;9.57;;
1412;SDS011;701;52.526;13.408;2023-12-07T06:52:09;25.33;;;9.90;;
1412;SDS011;701;52.526;13.408;2023-12-07T06:54:36;24.75;;;10.55;;
1412;SDS011;701;52.526;13.408;2023-12-07T06:57:02;23.63;;;9.52;;
1412;SDS011;701;52.526;13.408;2023-12-07T06:59:27;22.60;;;9.30;;
1412;SDS011;701;52.526;13.408;2023-12-07T07:01:53;25.17;;;9.70;;
1412;SDS011;701;52.526;13.408;2023-12-07T07:04:19;21.40;;;9.85;;
1412;SDS011;701;52.526;13.408;2023-12-07T07:06:45;22.87;;;8.97;;
1412;SDS011;701;52.526;13.408;2023-12-07T07:09:11;23.85;;;9.68;;
1412;SDS011;701;52.526;13.408;2023-12-07T07:11:38;21.93;;;9.10;;
1412;SDS011;701;52.526;13.408;2023-12-07T07:14:03;23.38;;;9.10;;
1412;SDS011;701;52.526;13.408;2023-12-07T07:16:30;37.85;;;9.52;;
1412;SDS011;701;52.526;13.408;2023-12-07T07:18:56;25.87;;;9.87;;
1412;SDS011;701;52.526;13.408;2023-12-07T07:21:21;24.60;;;10.05;;
1412;SDS011;701;52.526;13.408;2023-12-07T07:23:47;24.10;;;9.90;;
1412;SDS011;701;52.526;13.408;2023-12-07T07:26:13;23.03;;;9.73;;
1412;SDS011;701;52.526;13.408;2023-12-07T07:28:44;22.48;;;9.23;;
1412;SDS011;701;52.526;13.408;2023-12-07T07:31:10;21.55;;;9.45;;
1412;SDS011;701;52.526;13.408;2023-12-07T07:33:36;24.63;;;9.50;;
1412;SDS011;701;52.526;13.408;2023-12-07T07:36:02;24.77;;;9.80;;
1412;SDS011;701;52.526;13.408;2023-12-07T07:38:28;27.50;;;10.75;;
1412;SDS011;701;52.526;13.408;2023-12-07T07:40:53;21.63;;;9.13;;
1412;SDS011;701;52.526;13.408;2023-12-07T07:43:19;23.83;;;9.10;;
1412;SDS011;701;52.526;13.408;2023-12-07T07:45:45;25.97;;;10.27;;
1412;SDS011;701;52.526;13.408;2023-12-07T07:48:11;25.88;;;10.25;;
1412;SDS011;701;52.526;13.408;2023-12-07T07:50:37;25.42;;;9.80;;
1412;SDS011;701;52.526;13.408;2023-12-07T07:53:03;24.37;;;10.03;;
1412;SDS011;701;52.526;13.408;2023-12-07T07:55:29;22.75;;;10.00;;
1412;SDS011;701;52.526;13.408;2023-12-07T07:57:56;29.98;;;10.88;;
1412;SDS011;701;52.526;13.408;2023-12-07T08:00:21;28.10;;;10.27;;
1412;SDS011;701;52.526;13.408;2023-12-07T08:02:50;23.25;;;9.63;;
1412;SDS011;701;52.526;13.408;2023-12-07T08:05:16;24.13;;;9.55;;
1412;SDS011;701;52.526;13.408;2023-12-07T08:07:41;20.67;;;8.47;;
1412;SDS011;701;52.526;13.408;2023-12-07T08:10:07;24.88;;;10.48;;
1412;SDS011;701;52.526;13.408;2023-12-07T08:12:34;22.00;;;8.67;;
1412;SDS011;701;52.526;13.408;2023-12-07T08:15:00;21.33;;;9.60;;
1412;SDS011;701;52.526;13.408;2023-12-07T08:17:26;28.92;;;10.65;;
1412;SDS011;701;52.526;13.408;2023-12-07T08:19:53;22.88;;;10.02;;
1412;SDS011;701;52.526;13.408;2023-12-07T08:22:18;22.37;;;9.63;;
1412;SDS011;701;52.526;13.408;2023-12-07T08:24:45;21.95;;;9.15;;
1412;SDS011;701;52.526;13.408;2023-12-07T08:27:11;26.20;;;10.73;;
1412;SDS011;701;52.526;13.408;2023-12-07T08:29:36;24.13;;;10.50;;
1412;SDS011;701;52.526;13.408;2023-12-07T08:32:02;26.67;;;11.23;;
1412;SDS011;701;52.526;13.408;2023-12-07T08:34:29;26.13;;;10.93;;
1412;SDS011;701;52.526;13.408;2023-12-07T08:36:54;26.53;;;11.07;;
1412;SDS011;701;52.526;13.408;2023-12-07T08:39:20;25.73;;;10.90;;
1412;SDS011;701;52.526;13.408;2023-12-07T08:41:46;26.47;;;10.20;;
1412;SDS011;701;52.526;13.408;2023-12-07T08:44:11;25.55;;;10.13;;
1412;SDS011;701;52.526;13.408;2023-12-07T08:46:37;24.23;;;10.23;;
1412;SDS011;701;52.526;13.408;2023-12-07T08:49:03;24.17;;;9.27;;
1412;SDS011;701;52.526;13.408;2023-12-07T08:51:29;22.57;;;9.67;;
1412;SDS011;701;52.526;13.408;2023-12-07T08:53:55;24.80;;;9.90;;
1412;SDS011;701;52.526;13.408;2023-12-07T08:56:21;23.55;;;9.57;;
1412;SDS011;701;52.526;13.408;2023-12-07T08:58:47;24.63;;;11.03;;
1412;SDS011;701;52.526;13.408;2023-12-07T09:01:13;23.83;;;9.98;;
1412;SDS011;701;52.526;13.408;2023-12-07T09:03:39;23.13;;;10.13;;
1412;SDS011;701;52.526;13.408;2023-12-07T09:06:06;23.25;;;9.60;;
1412;SDS011;701;52.526;13.408;2023-12-07T09:08:33;24.15;;;11.13;;
1412;SDS011;701;52.526;13.408;2023-12-07T09:10:59;29.17;;;11.07;;
1412;SDS011;701;52.526;13.408;2023-12-07T09:13:25;22.30;;;9.77;;
1412;SDS011;701;52.526;13.408;2023-12-07T09:15:50;23.95;;;10.18;;
1412;SDS011;701;52.526;13.408;2023-12-07T09:18:16;23.23;;;9.60;;
1412;SDS011;701;52.526;13.408;2023-12-07T09:20:42;22.83;;;9.70;;
1412;SDS011;701;52.526;13.408;2023-12-07T09:23:13;24.83;;;10.50;;
1412;SDS011;701;52.526;13.408;2023-12-07T09:25:42;23.10;;;9.50;;
1412;SDS011;701;52.526;13.408;2023-12-07T09:28:08;21.85;;;9.88;;
1412;SDS011;701;52.526;13.408;2023-12-07T09:30:34;20.33;;;9.48;;
1412;SDS011;701;52.526;13.408;2023-12-07T09:33:00;23.35;;;10.65;;
1412;SDS011;701;52.526;13.408;2023-12-07T09:35:28;23.33;;;9.65;;
1412;SDS011;701;52.526;13.408;2023-12-07T09:37:53;22.27;;;9.60;;
1412;SDS011;701;52.526;13.408;2023-12-07T09:40:20;19.43;;;8.83;;
1412;SDS011;701;52.526;13.408;2023-12-07T09:42:47;21.00;;;9.40;;
1412;SDS011;701;52.526;13.408;2023-12-07T09:45:13;21.13;;;9.40;;
1412;SDS011;701;52.526;13.408;2023-12-07T09:47:41;21.00;;;8.70;;
1412;SDS011;701;52.526;13.408;2023-12-07T09:50:08;19.75;;;8.77;;
1412;SDS011;701;52.526;13.408;2023-12-07T09:52:34;21.30;;;8.17;;
1412;SDS011;701;52.526;13.408;2023-12-07T09:55:02;19.13;;;8.52;;
1412;SDS011;701;52.526;13.408;2023-12-07T09:57:28;21.35;;;8.90;;
1412;SDS011;701;52.526;13.408;2023-12-07T09:59:55;18.55;;;8.55;;
1412;SDS011;701;52.526;13.408;2023-12-07T10:02:21;22.63;;;10.15;;
1412;SDS011;701;52.526;13.408;2023-12-07T10:04:47;22.80;;;11.00;;
1412;SDS011;701;52.526;13.408;2023-12-07T10:07:14;26.58;;;12.30;;
1412;SDS011;701;52.526;13.408;2023-12-07T10:09:40;28.05;;;11.85;;
1412;SDS011;701;52.526;13.408;2023-12-07T10:12:06;53.70;;;24.75;;
1412;SDS011;701;52.526;13.408;2023-12-07T10:14:33;46.90;;;22.50;;
1412;SDS011;701;52.526;13.408;2023-12-07T10:16:59;38.47;;;17.27;;
1412;SDS011;701;52.526;13.408;2023-12-07T10:19:25;39.20;;;18.33;;
1412;SDS011;701;52.526;13.408;2023-12-07T10:21:52;31.13;;;14.45;;
1412;SDS011;701;52.526;13.408;2023-12-07T10:24:22;27.00;;;11.37;;
1412;SDS011;701;52.526;13.408;2023-12-07T10:26:50;24.02;;;10.25;;
1412;SDS011;701;52.526;13.408;2023-12-07T10:29:19;24.73;;;10.10;;
1412;SDS011;701;52.526;13.408;2023-12-07T10:31:45;29.67;;;14.30;;
1412;SDS011;701;52.526;13.408;2023-12-07T10:34:17;23.00;;;11.20;;
1412;SDS011;701;52.526;13.408;2023-12-07T10:36:45;28.93;;;12.77;;
1412;SDS011;701;52.526;13.408;2023-12-07T10:39:12;30.60;;;11.60;;
1412;SDS011;701;52.526;13.408;2023-12-07T10:41:38;30.98;;;13.48;;
1412;SDS011;701;52.526;13.408;2023-12-07T10:44:09;27.63;;;12.30;;
1412;SDS011;701;52.526;13.408;2023-12-07T10:46:38;34.33;;;14.95;;
1412;SDS011;701;52.526;13.408;2023-12-07T10:49:07;25.70;;;11.43;;
1412;SDS011;701;52.526;13.408;2023-12-07T10:51:41;27.40;;;10.90;;
1412;SDS011;701;52.526;13.408;2023-12-07T10:54:16;29.17;;;12.02;;
1412;SDS011;701;52.526;13.408;2023-12-07T10:56:46;31.70;;;13.40;;
1412;SDS011;701;52.526;13.408;2023-12-07T10:59:12;26.85;;;10.82;;
1412;SDS011;701;52.526;13.408;2023-12-07T11:01:39;26.63;;;10.33;;
1412;SDS011;701;52.526;13.408;2023-12-07T11:04:05;28.85;;;11.80;;
1412;SDS011;701;52.526;13.408;2023-12-07T11:06:32;28.45;;;11.18;;
1412;SDS011;701;52.526;13.408;2023-12-07T11:09:00;27.67;;;10.73;;
1412;SDS011;701;52.526;13.408;2023-12-07T11:14:09;29.47;;;11.57;;
1412;SDS011;701;52.526;13.408;2023-12-07T11:16:37;30.73;;;10.70;;
1412;SDS011;701;52.526;13.408;2023-12-07T11:19:23;23.65;;;10.57;;
1412;SDS011;701;52.526;13.408;2023-12-07T11:21:58;27.65;;;11.45;;
1412;SDS011;701;52.526;13.408;2023-12-07T11:24:34;28.08;;;9.88;;
1412;SDS011;701;52.526;13.408;2023-12-07T11:27:01;24.90;;;10.63;;
1412;SDS011;701;52.526;13.408;2023-12-07T11:29:30;23.15;;;9.50;;
1412;SDS011;701;52.526;13.408;2023-12-07T11:31:58;21.77;;;9.90;;
1412;SDS011;701;52.526;13.408;2023-12-07T11:34:44;22.08;;;9.15;;
1412;SDS011;701;52.526;13.408;2023-12-07T11:37:11;19.33;;;9.50;;
1412;SDS011;701;52.526;13.408;2023-12-07T11:39:40;21.33;;;9.47;;
1412;SDS011;701;52.526;13.408;2023-12-07T11:42:07;21.05;;;8.65;;
1412;SDS011;701;52.526;13.408;2023-12-07T11:44:43;22.90;;;9.68;;
1412;SDS011;701;52.526;13.408;2023-12-07T11:47:15;22.52;;;8.95;;
1412;SDS011;701;52.526;13.408;2023-12-07T11:49:42;24.75;;;10.70;;
1412;SDS011;701;52.526;13.408;2023-12-07T11:52:12;24.53;;;11.90;;
1412;SDS011;701;52.526;13.408;2023-12-07T11:54:45;27.40;;;11.15;;
1412;SDS011;701;52.526;13.408;2023-12-07T11:57:11;25.73;;;10.88;;
1412;SDS011;701;52.526;13.408;2023-12-07T11:59:42;26.00;;;11.68;;
1412;SDS011;701;52.526;13.408;2023-12-07T12:02:12;25.40;;;11.55;;
1412;SDS011;701;52.526;13.408;2023-12-07T12:04:41;24.03;;;10.93;;
1412;SDS011;701;52.526;13.408;2023-12-07T12:07:07;24.80;;;11.23;;
1412;SDS011;701;52.526;13.408;2023-12-07T12:09:33;26.55;;;11.90;;
1412;SDS011;701;52.526;13.408;2023-12-07T12:11:59;24.83;;;10.80;;
1412;SDS011;701;52.526;13.408;2023-12-07T12:14:26;27.63;;;10.50;;
1412;SDS011;701;52.526;13.408;2023-12-07T12:16:53;22.02;;;9.63;;
1412;SDS011;701;52.526;13.408;2023-12-07T12:19:19;23.00;;;10.40;;
1412;SDS011;701;52.526;13.408;2023-12-07T12:21:47;22.88;;;10.48;;
1412;SDS011;701;52.526;13.408;2023-12-07T12:24:13;26.25;;;12.25;;
1412;SDS011;701;52.526;13.408;2023-12-07T12:26:39;27.55;;;10.52;;
1412;SDS011;701;52.526;13.408;2023-12-07T12:29:06;29.08;;;10.85;;
1412;SDS011;701;52.526;13.408;2023-12-07T12:31:33;26.90;;;11.43;;
1412;SDS011;701;52.526;13.408;2023-12-07T12:34:05;27.67;;;11.63;;
1412;SDS011;701;52.526;13.408;2023-12-07T12:36:33;25.58;;;11.45;;
1412;SDS011;701;52.526;13.408;2023-12-07T12:38:59;28.80;;;12.88;;
1412;SDS011;701;52.526;13.408;2023-12-07T12:41:27;28.85;;;11.60;;
1412;SDS011;701;52.526;13.408;2023-12-07T12:43:56;23.58;;;11.48;;
1412;SDS011;701;52.526;13.408;2023-12-07T12:46:22;31.10;;;12.73;;
1412;SDS011;701;52.526;13.408;2023-12-07T12:49:07;27.90;;;12.60;;
1412;SDS011;701;52.526;13.408;2023-12-07T12:51:32;29.65;;;12.52;;
1412;SDS011;701;52.526;13.408;2023-12-07T12:53:59;29.92;;;13.23;;
1412;SDS011;701;52.526;13.408;2023-12-07T12:56:26;31.65;;;12.43;;
1412;SDS011;701;52.526;13.408;2023-12-07T12:58:53;25.73;;;11.87;;
1412;SDS011;701;52.526;13.408;2023-12-07T13:01:22;28.70;;;12.15;;
1412;SDS011;701;52.526;13.408;2023-12-07T13:03:48;30.17;;;13.52;;
1412;SDS011;701;52.526;13.408;2023-12-07T13:06:14;28.90;;;12.95;;
1412;SDS011;701;52.526;13.408;2023-12-07T13:08:45;37.13;;;14.47;;
1412;SDS011;701;52.526;13.408;2023-12-07T13:11:15;29.38;;;12.57;;
1412;SDS011;701;52.526;13.408;2023-12-07T13:13:42;30.33;;;13.05;;
1412;SDS011;701;52.526;13.408;2023-12-07T13:16:07;29.83;;;13.68;;
1412;SDS011;701;52.526;13.408;2023-12-07T13:18:33;28.80;;;13.07;;
1412;SDS011;701;52.526;13.408;2023-12-07T13:20:59;30.42;;;13.07;;
1412;SDS011;701;52.526;13.408;2023-12-07T13:23:25;32.50;;;12.90;;
1412;SDS011;701;52.526;13.408;2023-12-07T13:25:51;31.83;;;14.00;;
1412;SDS011;701;52.526;13.408;2023-12-07T13:28:17;30.58;;;13.32;;
1412;SDS011;701;52.526;13.408;2023-12-07T13:30:43;33.30;;;14.45;;
1412;SDS011;701;52.526;13.408;2023-12-07T13:33:09;30.85;;;13.55;;
1412;SDS011;701;52.526;13.408;2023-12-07T13:35:35;34.47;;;14.37;;
1412;SDS011;701;52.526;13.408;2023-12-07T13:38:01;32.10;;;14.57;;
1412;SDS011;701;52.526;13.408;2023-12-07T13:40:27;33.67;;;13.35;;
1412;SDS011;701;52.526;13.408;2023-12-07T13:42:53;37.70;;;17.10;;
1412;SDS011;701;52.526;13.408;2023-12-07T13:45:18;35.03;;;15.27;;
1412;SDS011;701;52.526;13.408;2023-12-07T13:47:44;34.80;;;14.93;;
1412;SDS011;701;52.526;13.408;2023-12-07T13:50:11;33.05;;;14.85;;
1412;SDS011;701;52.526;13.408;2023-12-07T13:52:38;39.47;;;15.70;;
1412;SDS011;701;52.526;13.408;2023-12-07T13:55:04;37.88;;;15.00;;
1412;SDS011;701;52.526;13.408;2023-12-07T13:57:29;38.05;;;16.20;;
1412;SDS011;701;52.526;13.408;2023-12-07T13:59:55;36.40;;;14.80;;
1412;SDS011;701;52.526;13.408;2023-12-07T14:02:22;34.78;;;15.57;;
1412;SDS011;701;52.526;13.408;2023-12-07T14:04:48;41.08;;;16.17;;
1412;SDS011;701;52.526;13.408;2023-12-07T14:07:18;39.80;;;16.30;;
1412;SDS011;701;52.526;13.408;2023-12-07T14:09:46;37.97;;;14.70;;
1412;SDS011;701;52.526;13.408;2023-12-07T14:12:13;37.60;;;15.73;;
1412;SDS011;701;52.526;13.408;2023-12-07T14:14:42;41.05;;;14.80;;
1412;SDS011;701;52.526;13.408;2023-12-07T14:17:12;38.42;;;15.80;;
1412;SDS011;701;52.526;13.408;2023-12-07T14:19:39;51.20;;;17.33;;
1412;SDS011;701;52.526;13.408;2023-12-07T14:22:06;39.23;;;16.40;;
1412;SDS011;701;52.526;13.408;2023-12-07T14:24:34;38.00;;;14.38;;
1412;SDS011;701;52.526;13.408;2023-12-07T14:27:02;42.17;;;15.85;;
1412;SDS011;701;52.526;13.408;2023-12-07T14:29:32;44.45;;;16.88;;
1412;SDS011;701;52.526;13.408;2023-12-07T14:31:59;40.55;;;16.48;;
1412;SDS011;701;52.526;13.408;2023-12-07T14:34:25;40.40;;;15.70;;
1412;SDS011;701;52.526;13.408;2023-12-07T14:36:52;37.05;;;14.80;;
1412;SDS011;701;52.526;13.408;2023-12-07T14:39:18;37.38;;;15.13;;
1412;SDS011;701;52.526;13.408;2023-12-07T14:41:45;40.92;;;15.40;;
1412;SDS011;701;52.526;13.408;2023-12-07T14:44:16;35.50;;;14.20;;
1412;SDS011;701;52.526;13.408;2023-12-07T14:46:43;40.30;;;15.90;;
1412;SDS011;701;52.526;13.408;2023-12-07T14:49:09;36.45;;;14.43;;
1412;SDS011;701;52.526;13.408;2023-12-07T14:51:39;41.22;;;15.38;;
1412;SDS011;701;52.526;13.408;2023-12-07T14:54:05;36.42;;;14.68;;
1412;SDS011;701;52.526;13.408;2023-12-07T14:56:35;37.23;;;14.33;;
1412;SDS011;701;52.526;13.408;2023-12-07T14:59:01;36.58;;;15.57;;